Time;durP1;ratioP1;P1;durP2;ratioP2;P2;SDS_P1;SDS_P2;PMS_P1;PMS_P2;Temp;Humidity;BMP_temperature;BMP_pressure;BME280_temperature;BME280_humidity;BME280_pressure;Samples;Min_cycle;Max_cycle;Signal;HPM_P1;HPM_P2
2022/12/21 00:01:53;;;;;;;1999.90;999.90;;;;;;;4.39;100.00;94708.22;5071068;28;20173;-65
2022/12/21 00:04:18;;;;;;;1999.90;999.90;;;;;;;4.33;100.00;94715.16;5070719;28;20187;-66
2022/12/21 00:06:44;;;;;;;1999.90;999.90;;;;;;;4.31;100.00;94709.34;5070301;28;20179;-66
2022/12/21 00:09:12;;;;;;;1999.90;999.90;;;;;;;4.28;100.00;94712.78;5070250;28;20200;-66
2022/12/21 00:11:37;;;;;;;1999.90;999.90;;;;;;;4.27;100.00;94716.66;5070990;28;20320;-66
2022/12/21 00:14:04;;;;;;;1999.90;999.90;;;;;;;4.27;100.00;94722.84;5053581;28;20197;-62
2022/12/21 00:16:32;;;;;;;1999.90;999.90;;;;;;;4.27;100.00;94717.44;5070886;28;20170;-60
2022/12/21 00:18:59;;;;;;;1999.90;999.90;;;;;;;4.25;100.00;94718.94;5053594;28;20204;-67
2022/12/21 00:21:26;;;;;;;1999.90;999.90;;;;;;;4.25;100.00;94718.94;5070483;28;20174;-66
2022/12/21 00:23:53;;;;;;;1999.90;999.90;;;;;;;4.26;100.00;94725.91;5053991;28;20180;-66
2022/12/21 00:26:23;;;;;;;1999.90;999.90;;;;;;;4.25;100.00;94727.06;5070018;28;20178;-67
2022/12/21 00:28:50;;;;;;;1999.90;999.90;;;;;;;4.21;100.00;94723.56;5053626;28;20209;-66
2022/12/21 00:31:18;;;;;;;1999.90;999.90;;;;;;;4.20;100.00;94717.41;5070329;28;20178;-66
2022/12/21 00:33:45;;;;;;;1999.90;999.90;;;;;;;4.20;100.00;94711.22;5054135;28;20214;-67
2022/12/21 00:36:13;;;;;;;1999.90;999.90;;;;;;;4.22;100.00;94709.69;5053466;28;20188;-61
2022/12/21 00:38:38;;;;;;;1999.90;999.90;;;;;;;4.26;100.00;94704.31;5053148;28;20209;-61
2022/12/21 00:41:07;;;;;;;1999.90;999.90;;;;;;;4.25;100.00;94697.34;5053057;28;20204;-61
2022/12/21 00:43:34;;;;;;;1999.90;999.90;;;;;;;4.26;100.00;94693.50;5053525;28;20209;-61
2022/12/21 00:46:00;;;;;;;1999.90;999.90;;;;;;;4.24;100.00;94698.50;5052965;28;20250;-60
2022/12/21 00:48:30;;;;;;;1999.90;999.90;;;;;;;4.25;100.00;94703.53;5053467;28;20188;-61
2022/12/21 00:51:07;;;;;;;1999.90;999.90;;;;;;;4.28;100.00;94697.38;5053089;28;20544;-64
2022/12/21 00:53:32;;;;;;;1999.90;999.90;;;;;;;4.29;100.00;94700.84;5070298;28;20254;-71
2022/12/21 00:55:59;;;;;;;1999.90;999.90;;;;;;;4.28;100.00;94701.97;5053325;28;20197;-72
2022/12/21 00:58:27;;;;;;;1999.90;999.90;;;;;;;4.28;100.00;94707.38;5069904;28;20198;-71
2022/12/21 01:00:53;;;;;;;1999.90;999.90;;;;;;;4.26;100.00;94710.47;5069683;28;20296;-72
2022/12/21 01:03:19;;;;;;;1999.90;999.90;;;;;;;4.28;100.00;94707.38;5052960;28;20174;-72
2022/12/21 01:05:46;;;;;;;1999.90;999.90;;;;;;;4.30;100.00;94711.25;5069929;28;20201;-71
2022/12/21 01:08:12;;;;;;;1999.90;999.90;;;;;;;4.32;100.00;94714.38;5070522;28;20213;-71
2022/12/21 01:10:37;;;;;;;1999.90;999.90;;;;;;;4.31;100.00;94717.44;5070142;28;20206;-65
2022/12/21 01:13:02;;;;;;;1999.90;999.90;;;;;;;4.33;100.00;94720.56;5053272;28;20182;-67
2022/12/21 01:15:28;;;;;;;1999.90;999.90;;;;;;;4.36;100.00;94719.78;5072826;28;20186;-65
2022/12/21 01:17:53;;;;;;;1999.90;999.90;;;;;;;4.40;100.00;94734.09;5074728;28;20211;-64
2022/12/21 01:20:18;;;;;;;1999.90;999.90;;;;;;;4.45;100.00;94739.13;5057397;28;20174;-66
2022/12/21 01:22:44;;;;;;;1999.90;999.90;;;;;;;4.41;100.00;94754.56;5073755;28;20177;-65
2022/12/21 01:25:09;;;;;;;1999.90;999.90;;;;;;;4.46;100.00;94765.00;5058390;28;20171;-66
2022/12/21 01:27:35;;;;;;;1999.90;999.90;;;;;;;4.54;100.00;94774.69;5074198;28;20213;-68
2022/12/21 01:30:00;;;;;;;1999.90;999.90;;;;;;;4.56;100.00;94783.97;5073123;28;20266;-68
2022/12/21 01:32:25;;;;;;;1999.90;999.90;;;;;;;4.57;100.00;94784.72;5073971;28;20175;-63
2022/12/21 01:34:51;;;;;;;1999.90;999.90;;;;;;;4.61;100.00;94796.34;5056677;28;20175;-63
2022/12/21 01:37:16;;;;;;;1999.90;999.90;;;;;;;4.63;100.00;94800.19;5073283;28;20293;-63
2022/12/21 01:39:41;;;;;;;1999.90;999.90;;;;;;;4.65;100.00;94807.94;5073259;28;20175;-63
2022/12/21 01:42:12;;;;;;;1999.90;999.90;;;;;;;4.67;100.00;94817.25;5072941;28;20167;-63
2022/12/21 01:45:14;;;;;;;1999.90;999.90;;;;;;;4.70;100.00;94818.41;5056408;28;20616;-63
2022/12/21 01:47:56;;;;;;;1999.90;999.90;;;;;;;4.71;100.00;94818.03;5073261;28;20176;-62
2022/12/21 01:50:31;;;;;;;1999.90;999.90;;;;;;;4.71;100.00;94818.03;5073348;28;20173;-64
2022/12/21 01:53:01;;;;;;;1999.90;999.90;;;;;;;4.74;100.00;94830.00;5072691;28;20364;-64
2022/12/21 01:55:29;;;;;;;1999.90;999.90;;;;;;;4.72;100.00;94824.19;5073657;28;20185;-65
2022/12/21 01:57:55;;;;;;;1999.90;999.90;;;;;;;4.64;100.00;94834.22;5056886;28;20214;-66
2022/12/21 02:00:20;;;;;;;1999.90;999.90;;;;;;;4.64;100.00;94844.25;5073095;28;20178;-65
2022/12/21 02:02:54;;;;;;;1999.90;999.90;;;;;;;4.64;100.00;94839.63;5055856;28;20182;-65
2022/12/21 02:05:39;;;;;;;1999.90;999.90;;;;;;;4.65;100.00;94835.75;5056667;28;20225;-62
2022/12/21 02:08:05;;;;;;;1999.90;999.90;;;;;;;4.73;100.00;94825.78;5073275;28;20187;-65
2022/12/21 02:10:31;;;;;;;1999.90;999.90;;;;;;;4.83;100.00;94828.50;5056962;28;20173;-65
2022/12/21 02:13:03;;;;;;;1999.90;999.90;;;;;;;4.87;100.00;94828.50;5056565;28;20182;-65
2022/12/21 02:15:48;;;;;;;1999.90;999.90;;;;;;;4.85;100.00;94836.25;5072334;28;20190;-66
2022/12/21 02:18:21;;;;;;;1999.90;999.90;;;;;;;4.93;100.00;94845.94;5055621;28;20237;-65
2022/12/21 02:20:58;;;;;;;1999.90;999.90;;;;;;;4.92;100.00;94866.03;5073215;28;20186;-65
2022/12/21 02:23:46;;;;;;;1999.90;999.90;;;;;;;4.96;100.00;94885.75;5072637;28;20264;-61
2022/12/21 02:26:17;;;;;;;1999.90;999.90;;;;;;;4.95;100.00;94890.38;5072029;28;20625;-60
2022/12/21 02:28:45;;;;;;;1999.90;999.90;;;;;;;5.02;100.00;94908.56;5073083;28;20600;-61
2022/12/21 02:31:17;;;;;;;1999.90;999.90;;;;;;;5.06;100.00;94920.22;5072856;28;20171;-61
2022/12/21 02:33:51;;;;;;;1999.90;999.90;;;;;;;5.13;100.00;94936.47;5072377;28;20232;-61
2022/12/21 02:36:38;;;;;;;1999.90;999.90;;;;;;;5.12;100.00;94956.56;5072664;28;20171;-61
2022/12/21 02:39:15;;;;;;;1999.90;999.90;;;;;;;5.16;100.00;94957.34;5072187;28;20213;-61
2022/12/21 02:42:07;;;;;;;1999.90;999.90;;;;;;;5.14;100.00;94975.91;5072996;28;20201;-63
2022/12/21 02:44:54;;;;;;;1999.90;999.90;;;;;;;5.11;100.00;94982.06;5051540;28;20198;-69
2022/12/21 02:47:36;;;;;;;1999.90;999.90;;;;;;;5.12;100.00;94994.44;5072657;28;20175;-69
2022/12/21 02:50:09;;;;;;;1999.90;999.90;;;;;;;5.16;100.00;94997.94;5072710;28;20212;-69
2022/12/21 02:52:41;;;;;;;1999.90;999.90;;;;;;;5.12;100.00;94997.94;5072071;28;20221;-69
2022/12/21 02:55:10;;;;;;;1999.90;999.90;;;;;;;5.09;100.00;95006.00;5071779;28;20620;-69
2022/12/21 02:57:38;;;;;;;1999.90;999.90;;;;;;;5.08;100.00;95015.28;5055047;28;20198;-69
2022/12/21 03:00:17;;;;;;;1999.90;999.90;;;;;;;5.05;100.00;95010.63;5055261;28;20178;-74
2022/12/21 03:03:47;;;;;;;1999.90;999.90;;;;;;;5.03;100.00;95008.28;5055073;28;20644;-63
2022/12/21 03:05:58;;;;;;;1999.90;999.90;;;;;;;5.03;100.00;95002.13;5055685;28;20293;-62
2022/12/21 03:08:30;;;;;;;1999.90;999.90;;;;;;;5.03;100.00;95002.13;5056119;28;20167;-63
2022/12/21 03:11:00;;;;;;;1999.90;999.90;;;;;;;5.04;100.00;94996.34;5072301;28;20178;-62
2022/12/21 03:13:56;;;;;;;1999.90;999.90;;;;;;;5.08;100.00;94982.81;5072461;28;20186;-63
2022/12/21 03:16:29;;;;;;;1999.90;999.90;;;;;;;5.11;100.00;94982.06;5071331;28;20174;-63
2022/12/21 03:19:06;;;;;;;1999.90;999.90;;;;;;;5.11;100.00;94980.16;5055287;28;20206;-65
2022/12/21 03:21:42;;;;;;;1999.90;999.90;;;;;;;5.12;100.00;94975.50;5055349;28;20191;-73
2022/12/21 03:24:22;;;;;;;1999.90;999.90;;;;;;;5.15;100.00;94977.44;5071920;28;20211;-74
2022/12/21 03:26:56;;;;;;;1999.90;999.90;;;;;;;5.15;100.00;94974.75;5054745;28;20178;-73
2022/12/21 03:29:27;;;;;;;1999.90;999.90;;;;;;;5.16;100.00;94981.69;5071724;28;20175;-73
2022/12/21 03:31:59;;;;;;;1999.90;999.90;;;;;;;5.17;100.00;94975.16;5071145;28;20170;-72
2022/12/21 03:34:34;;;;;;;1999.90;999.90;;;;;;;5.18;100.00;94982.91;5070964;28;20196;-73
2022/12/21 03:37:04;;;;;;;1999.90;999.90;;;;;;;5.20;100.00;94979.78;5071301;28;20183;-72
2022/12/21 03:39:32;;;;;;;1999.90;999.90;;;;;;;5.19;100.00;94972.81;5071040;28;20178;-63
2022/12/21 03:42:23;;;;;;;1999.90;999.90;;;;;;;5.16;100.00;94984.41;5070914;28;20163;-63
2022/12/21 03:44:55;;;;;;;1999.90;999.90;;;;;;;5.17;100.00;94981.31;5054925;28;20176;-63
2022/12/21 03:47:27;;;;;;;1999.90;999.90;;;;;;;5.17;100.00;94980.56;5071505;28;20169;-62
2022/12/21 03:50:01;;;;;;;1999.90;999.90;;;;;;;5.15;100.00;94972.03;5054885;28;20175;-62
2022/12/21 03:52:49;;;;;;;1999.90;999.90;;;;;;;5.15;100.00;94956.59;5071181;28;20180;-63
2022/12/21 03:55:17;;;;;;;1999.90;999.90;;;;;;;5.16;100.00;94957.34;5054018;28;20269;-67
2022/12/21 03:57:43;;;;;;;1999.90;999.90;;;;;;;5.14;100.00;94946.13;5070768;28;20283;-71
2022/12/21 04:00:11;;;;;;;1999.90;999.90;;;;;;;5.10;100.00;94943.41;5070550;28;20660;-69
2022/12/21 04:02:40;;;;;;;1999.90;999.90;;;;;;;5.08;100.00;94939.53;5071040;28;20165;-72
2022/12/21 04:05:17;;;;;;;1999.90;999.90;;;;;;;5.08;100.00;94939.53;5071233;28;20202;-72
2022/12/21 04:07:45;;;;;;;1999.90;999.90;;;;;;;5.07;100.00;94943.41;5070301;28;20692;-71
2022/12/21 04:10:18;;;;;;;1999.90;999.90;;;;;;;5.07;100.00;94932.56;5070692;28;20172;-72
2022/12/21 04:12:46;;;;;;;1999.90;999.90;;;;;;;5.07;100.00;94943.41;5054367;28;20190;-64
2022/12/21 04:15:20;;;;;;;1999.90;999.90;;;;;;;5.07;100.00;94933.31;5071043;28;20263;-61
2022/12/21 04:17:49;;;;;;;1999.90;999.90;;;;;;;5.09;100.00;94935.66;5053296;28;20195;-66
2022/12/21 04:20:24;;;;;;;1999.90;999.90;;;;;;;5.08;100.00;94934.13;5053785;28;20180;-66
2022/12/21 04:28:28;;;;;;;1999.90;999.90;;;;;;;5.07;100.00;94913.63;5054959;28;20187;-65
2022/12/21 04:30:53;;;;;;;1999.90;999.90;;;;;;;5.07;100.00;94922.50;5053222;28;20175;-66
2022/12/21 04:33:20;;;;;;;1999.90;999.90;;;;;;;5.04;100.00;94923.28;5070003;28;20267;-62
2022/12/21 04:38:33;;;;;;;1999.90;999.90;;;;;;;5.02;100.00;94903.16;5054614;28;20562;-66
2022/12/21 04:40:58;;;;;;;1999.90;999.90;;;;;;;5.07;100.00;94902.81;5070771;28;20685;-66
2022/12/21 04:43:24;;;;;;;1999.90;999.90;;;;;;;5.05;100.00;94891.56;5053555;28;20297;-69
2022/12/21 04:46:05;;;;;;;1999.90;999.90;;;;;;;5.01;100.00;94888.09;5070282;28;20175;-69
2022/12/21 04:48:30;;;;;;;1999.90;999.90;;;;;;;4.98;100.00;94876.09;5054019;28;20178;-69
2022/12/21 04:50:56;;;;;;;1999.90;999.90;;;;;;;4.98;100.00;94865.28;5057340;28;20185;-67
2022/12/21 04:53:22;;;;;;;1999.90;999.90;;;;;;;4.94;100.00;94861.78;5057248;28;20223;-70
2022/12/21 04:55:47;;;;;;;1999.90;999.90;;;;;;;4.94;100.00;94848.25;5057214;28;20201;-71
2022/12/21 04:58:13;;;;;;;1999.90;999.90;;;;;;;4.92;100.00;94838.97;5073697;28;20225;-70
2022/12/21 05:00:38;;;;;;;1999.90;999.90;;;;;;;4.88;100.00;94832.78;5073991;28;20345;-71
2022/12/21 05:03:04;;;;;;;1999.90;999.90;;;;;;;4.89;100.00;94824.28;5074583;28;20307;-71
2022/12/21 05:05:30;;;;;;;1999.90;999.90;;;;;;;4.90;100.00;94808.81;5057462;28;20571;-72
2022/12/21 05:07:55;;;;;;;1999.90;999.90;;;;;;;4.89;100.00;94802.66;5057751;28;20286;-74
2022/12/21 05:10:21;;;;;;;1999.90;999.90;;;;;;;4.88;100.00;94792.97;5074305;28;20206;-73
2022/12/21 05:12:46;;;;;;;1999.90;999.90;;;;;;;4.85;100.00;94780.19;5073871;28;20216;-69
2022/12/21 05:15:13;;;;;;;1999.90;999.90;;;;;;;4.87;100.00;94775.19;5073960;28;20202;-67
2022/12/21 05:17:41;;;;;;;1999.90;999.90;;;;;;;4.86;100.00;94759.34;5057819;28;20248;-68
2022/12/21 05:20:06;;;;;;;1999.90;999.90;;;;;;;4.87;100.00;94755.47;5057564;28;20179;-68
2022/12/21 05:22:32;;;;;;;1999.90;999.90;;;;;;;4.86;100.00;94748.53;5056894;28;20178;-67
2022/12/21 05:24:58;;;;;;;1999.90;999.90;;;;;;;4.90;100.00;94738.50;5073563;28;20189;-67
2022/12/21 05:27:23;;;;;;;1999.90;999.90;;;;;;;4.88;100.00;94736.16;5073913;28;20252;-68
2022/12/21 05:29:49;;;;;;;1999.90;999.90;;;;;;;4.85;100.00;94730.75;5074165;28;20595;-64
2022/12/21 05:32:14;;;;;;;1999.90;999.90;;;;;;;4.81;100.00;94716.47;5073741;28;20171;-64
2022/12/21 05:34:39;;;;;;;1999.90;999.90;;;;;;;4.80;100.00;94712.19;5074045;28;20534;-64
2022/12/21 05:37:05;;;;;;;1999.90;999.90;;;;;;;4.82;100.00;94704.47;5073937;28;20201;-64
2022/12/21 05:39:31;;;;;;;1999.90;999.90;;;;;;;4.86;100.00;94695.22;5073197;28;20190;-64
2022/12/21 05:41:56;;;;;;;1999.90;999.90;;;;;;;4.91;100.00;94696.75;5072954;28;20175;-64
2022/12/21 05:44:21;;;;;;;1999.90;999.90;;;;;;;4.87;100.00;94701.38;5072953;28;20190;-64
2022/12/21 05:46:47;;;;;;;1999.90;999.90;;;;;;;4.89;100.00;94696.38;5073131;28;20181;-67
2022/12/21 05:49:12;;;;;;;1999.90;999.90;;;;;;;4.94;100.00;94698.69;5072923;28;20180;-63
2022/12/21 05:51:37;;;;;;;1999.90;999.90;;;;;;;4.95;100.00;94697.56;5073826;28;20178;-64
2022/12/21 05:54:03;;;;;;;1999.90;999.90;;;;;;;4.98;100.00;94696.78;5073068;28;20226;-64
2022/12/21 05:56:28;;;;;;;1999.90;999.90;;;;;;;5.02;100.00;94697.56;5072851;28;20193;-64
2022/12/21 05:58:54;;;;;;;1999.90;999.90;;;;;;;5.02;100.00;94700.25;5056477;28;20720;-64
2022/12/21 06:01:19;;;;;;;1999.90;999.90;;;;;;;5.02;100.00;94702.97;5072502;28;20652;-64
2022/12/21 06:03:44;;;;;;;1999.90;999.90;;;;;;;5.00;100.00;94695.25;5072620;28;20198;-71
2022/12/21 06:06:13;;;;;;;1999.90;999.90;;;;;;;5.01;100.00;94690.59;5055904;28;20249;-64
2022/12/21 06:08:38;;;;;;;1999.90;999.90;;;;;;;5.00;100.00;94695.25;5056685;28;20224;-71
2022/12/21 06:11:19;;;;;;;1999.90;999.90;;;;;;;5.02;100.00;94694.84;5072743;28;20172;-71
2022/12/21 06:13:44;;;;;;;1999.90;999.90;;;;;;;5.02;100.00;94690.22;5055858;28;20254;-70
2022/12/21 06:16:12;;;;;;;1999.90;999.90;;;;;;;5.01;100.00;94690.59;5055682;28;20211;-70
2022/12/21 06:18:39;;;;;;;1999.90;999.90;;;;;;;5.00;100.00;94694.47;5055863;28;20217;-70
2022/12/21 06:21:04;;;;;;;1999.90;999.90;;;;;;;4.99;100.00;94677.47;5072577;28;20258;-72
2022/12/21 06:23:30;;;;;;;1999.90;999.90;;;;;;;5.01;100.00;94685.19;5072411;28;20295;-69
2022/12/21 06:25:57;;;;;;;1999.90;999.90;;;;;;;5.00;100.00;94678.25;5072456;28;20170;-69
2022/12/21 06:28:24;;;;;;;1999.90;999.90;;;;;;;5.00;100.00;94678.25;5073242;28;20267;-69
2022/12/21 06:30:50;;;;;;;1999.90;999.90;;;;;;;5.01;100.00;94675.16;5055269;28;20171;-70
2022/12/21 06:33:17;;;;;;;1999.90;999.90;;;;;;;5.03;100.00;94666.66;5072918;28;20200;-69
2022/12/21 06:35:42;;;;;;;1999.90;999.90;;;;;;;5.04;100.00;94660.06;5071974;28;20174;-70
2022/12/21 06:38:07;;;;;;;1999.90;999.90;;;;;;;5.00;100.00;94662.00;5071788;28;20210;-70
2022/12/21 06:40:33;;;;;;;1999.90;999.90;;;;;;;5.05;100.00;94653.50;5072191;28;20178;-63
2022/12/21 06:42:58;;;;;;;1999.90;999.90;;;;;;;5.08;100.00;94644.63;5071750;28;20524;-63
2022/12/21 06:45:23;;;;;;;1999.90;999.90;;;;;;;5.16;100.00;94638.03;5055277;28;20656;-67
2022/12/21 06:47:53;;;;;;;1999.90;999.90;;;;;;;5.27;100.00;94645.00;5055671;28;20182;-66
2022/12/21 06:50:18;;;;;;;1999.90;999.90;;;;;;;5.23;100.00;94640.75;5072422;28;20201;-66
2022/12/21 06:52:43;;;;;;;1999.90;999.90;;;;;;;5.30;100.00;94635.34;5071398;28;20219;-65
2022/12/21 06:55:09;;;;;;;1999.90;999.90;;;;;;;5.36;100.00;94650.03;5055876;28;20176;-66
2022/12/21 06:57:34;;;;;;;1999.90;999.90;;;;;;;5.35;100.00;94659.31;5054948;28;20225;-65
2022/12/21 06:59:59;;;;;;;1999.90;999.90;;;;;;;5.45;100.00;94664.72;5071592;28;20177;-62
2022/12/21 07:02:25;;;;;;;1999.90;999.90;;;;;;;5.51;100.00;94673.22;5055338;28;20197;-63
2022/12/21 07:04:52;;;;;;;1999.90;999.90;;;;;;;5.43;100.00;94685.22;5054963;28;20198;-63
2022/12/21 07:07:18;;;;;;;1999.90;999.90;;;;;;;5.51;100.00;94694.88;5072479;28;20177;-62
2022/12/21 07:09:43;;;;;;;1999.90;999.90;;;;;;;5.48;100.00;94709.19;5071968;28;20181;-62
2022/12/21 07:12:09;;;;;;;1999.90;999.90;;;;;;;5.46;100.00;94711.53;5070980;28;20178;-63
2022/12/21 07:14:35;;;;;;;1999.90;999.90;;;;;;;5.41;100.00;94709.19;5071224;28;20186;-62
2022/12/21 07:17:00;;;;;;;1999.90;999.90;;;;;;;5.45;100.00;94726.19;5071459;28;20167;-62
2022/12/21 07:19:26;;;;;;;1999.90;999.90;;;;;;;5.44;100.00;94724.66;5071080;28;20228;-71
2022/12/21 07:21:52;;;;;;;1999.90;999.90;;;;;;;5.39;100.00;94719.66;5055196;28;20195;-63
2022/12/21 07:24:17;;;;;;;1999.90;999.90;;;;;;;5.36;100.00;94709.59;5071119;28;20170;-63
2022/12/21 07:26:43;;;;;;;1999.90;999.90;;;;;;;5.34;100.00;94711.88;5054451;28;20202;-64
2022/12/21 07:29:11;;;;;;;1999.90;999.90;;;;;;;5.43;100.00;94706.88;5070694;28;20224;-64
2022/12/21 07:31:37;;;;;;;1999.90;999.90;;;;;;;5.44;100.00;94694.88;5071127;28;20174;-64
2022/12/21 07:34:02;;;;;;;1999.90;999.90;;;;;;;5.33;100.00;94683.28;5054493;28;20174;-64
2022/12/21 07:36:27;;;;;;;1999.90;999.90;;;;;;;5.42;100.00;94672.81;5071573;28;20168;-68
2022/12/21 07:38:54;;;;;;;1999.90;999.90;;;;;;;5.38;100.00;94661.22;5070993;28;20251;-68
2022/12/21 07:41:19;;;;;;;1999.90;999.90;;;;;;;5.41;100.00;94652.34;5071440;28;20653;-68
2022/12/21 07:43:45;;;;;;;1999.90;999.90;;;;;;;5.42;100.00;94645.75;5070854;28;20186;-68
2022/12/21 07:46:10;;;;;;;1999.90;999.90;;;;;;;5.42;100.00;94638.41;5070921;28;20171;-67
2022/12/21 07:48:36;;;;;;;1999.90;999.90;;;;;;;5.43;100.00;94628.38;5070460;28;20195;-69
2022/12/21 07:51:02;;;;;;;1999.90;999.90;;;;;;;5.40;100.00;94619.09;5054040;28;20191;-67
2022/12/21 07:53:28;;;;;;;1999.90;999.90;;;;;;;5.39;100.00;94603.25;5053784;28;20258;-68
2022/12/21 07:55:58;;;;;;;1999.90;999.90;;;;;;;5.36;100.00;94576.94;5070627;28;20205;-67
2022/12/21 07:58:24;;;;;;;1999.90;999.90;;;;;;;5.40;100.00;94535.19;5054508;28;20194;-63
2022/12/21 08:00:49;;;;;;;1999.90;999.90;;;;;;;5.40;100.00;94507.34;5070518;28;20233;-64
2022/12/21 08:03:14;;;;;;;1999.90;999.90;;;;;;;5.39;100.00;94486.84;5070772;28;20222;-63
2022/12/21 08:05:40;;;;;;;1999.90;999.90;;;;;;;5.38;100.00;94471.75;5070251;28;20201;-63
2022/12/21 08:08:05;;;;;;;1999.90;999.90;;;;;;;5.42;100.00;94450.84;5070625;28;20191;-63
2022/12/21 08:10:30;;;;;;;1999.90;999.90;;;;;;;5.41;100.00;94433.09;5070347;28;20632;-63
2022/12/21 08:12:56;;;;;;;1999.90;999.90;;;;;;;5.40;100.00;94429.63;5053838;28;20213;-66
2022/12/21 08:15:21;;;;;;;1999.90;999.90;;;;;;;5.43;100.00;94414.53;5070878;28;20216;-64
2022/12/21 08:17:53;;;;;;;1999.90;999.90;;;;;;;5.46;100.00;94389.38;5070508;28;20237;-65
2022/12/21 08:20:19;;;;;;;1999.90;999.90;;;;;;;5.41;100.00;94382.44;5070935;28;20180;-66
2022/12/21 08:22:45;;;;;;;1999.90;999.90;;;;;;;5.41;100.00;94370.81;5070344;28;20224;-66
2022/12/21 08:25:11;;;;;;;1999.90;999.90;;;;;;;5.43;100.00;94354.97;5053721;28;20226;-66
2022/12/21 08:27:37;;;;;;;1999.90;999.90;;;;;;;5.47;100.00;94344.88;5070141;28;20184;-66
2022/12/21 08:30:03;;;;;;;1999.90;999.90;;;;;;;5.46;100.00;94327.13;5053884;28;20222;-66
2022/12/21 08:32:29;;;;;;;1999.90;999.90;;;;;;;5.50;100.00;94319.75;5070254;28;20183;-66
2022/12/21 08:34:55;;;;;;;1999.90;999.90;;;;;;;5.51;100.00;94307.75;5053324;28;20171;-67
2022/12/21 08:37:20;;;;;;;1999.90;999.90;;;;;;;5.53;100.00;94294.56;5053883;28;20205;-67
2022/12/21 08:39:46;;;;;;;1999.90;999.90;;;;;;;5.58;100.00;94278.66;5054007;28;20180;-67
2022/12/21 08:42:13;;;;;;;1999.90;999.90;;;;;;;5.62;100.00;94270.53;5070410;28;20232;-67
2022/12/21 08:44:38;;;;;;;1999.90;999.90;;;;;;;5.63;100.00;94261.22;5053147;28;20182;-67
2022/12/21 08:47:03;;;;;;;1999.90;999.90;;;;;;;5.69;100.00;94243.38;5053011;28;20186;-66
2022/12/21 08:49:29;;;;;;;1999.90;999.90;;;;;;;5.73;100.00;94233.28;5070073;28;20201;-62
2022/12/21 08:51:54;;;;;;;1999.90;999.90;;;;;;;5.76;100.00;94224.38;5053238;28;20175;-69
2022/12/21 08:54:19;;;;;;;1999.90;999.90;;;;;;;5.81;100.00;94208.50;5070065;28;20234;-60
2022/12/21 08:56:45;;;;;;;1999.90;999.90;;;;;;;5.84;100.00;94198.78;5069987;28;20535;-61
2022/12/21 08:59:10;;;;;;;1999.90;999.90;;;;;;;5.89;100.00;94201.81;5069694;28;20564;-60
2022/12/21 09:01:35;;;;;;;1999.90;999.90;;;;;;;5.90;100.00;94194.47;5070088;28;20540;-60
2022/12/21 09:04:02;;;;;;;1999.90;999.90;;;;;;;5.99;100.00;94186.63;5069842;28;20592;-61
2022/12/21 09:06:28;;;;;;;1999.90;999.90;;;;;;;6.00;100.00;94180.81;5053837;28;20183;-60
2022/12/21 09:08:53;;;;;;;1999.90;999.90;;;;;;;6.00;100.00;94188.94;5069610;28;20623;-60
2022/12/21 09:11:20;;;;;;;1999.90;999.90;;;;;;;5.99;100.00;94182.00;5069711;28;20655;-66
2022/12/21 09:13:46;;;;;;;1999.90;999.90;;;;;;;6.05;100.00;94164.09;5070108;28;20191;-66
2022/12/21 09:16:23;;;;;;;1999.90;999.90;;;;;;;6.10;100.00;94157.47;5052951;28;20663;-66
2022/12/21 09:18:49;;;;;;;1999.90;999.90;;;;;;;6.15;100.00;94154.31;5053609;28;20230;-66
2022/12/21 09:21:16;;;;;;;1999.90;999.90;;;;;;;6.20;100.00;94149.22;5069449;28;20183;-66
2022/12/21 09:23:42;;;;;;;1999.90;999.90;;;;;;;6.25;100.00;94146.06;5053099;28;20275;-65
2022/12/21 09:26:08;;;;;;;1999.90;999.90;;;;;;;6.27;100.00;94140.25;5053605;28;20291;-66
2022/12/21 09:28:34;;;;;;;1999.90;999.90;;;;;;;6.30;100.00;94147.53;5069891;28;20184;-68
2022/12/21 09:31:15;;;;;;;1999.90;999.90;;;;;;;6.32;100.00;94142.50;5069740;28;20180;-60
2022/12/21 09:33:42;;;;;;;1999.90;999.90;;;;;;;6.32;100.00;94140.56;5053458;28;20194;-60
2022/12/21 09:36:08;;;;;;;1999.90;999.90;;;;;;;6.37;100.00;94142.81;5071639;28;20184;-61
2022/12/21 09:38:34;;;;;;;1999.90;999.90;;;;;;;6.41;100.00;94138.09;5072978;28;20205;-61
2022/12/21 09:41:20;;;;;;;1999.90;999.90;;;;;;;6.50;100.00;94134.91;5073830;28;20176;-60
2022/12/21 09:44:23;;;;;;;1999.90;999.90;;;;;;;6.65;100.00;94137.03;5073065;28;20181;-60
2022/12/21 09:46:51;;;;;;;1999.90;999.90;;;;;;;6.75;100.00;94141.50;5073074;28;20183;-66
2022/12/21 09:49:21;;;;;;;1999.90;999.90;;;;;;;6.82;100.00;94140.66;5056544;28;20179;-67
2022/12/21 09:51:55;;;;;;;1999.90;999.90;;;;;;;6.98;100.00;94129.94;5073295;28;20181;-67
2022/12/21 09:54:36;;;;;;;1999.90;999.90;;;;;;;7.09;100.00;94133.25;5056238;28;20231;-68
2022/12/21 09:57:01;;;;;;;1999.90;999.90;;;;;;;7.15;100.00;94131.63;5056342;28;20164;-69
2022/12/21 09:59:27;;;;;;;1999.90;999.90;;;;;;;7.24;100.00;94134.56;5056813;28;20206;-69
2022/12/21 10:01:59;;;;;;;1999.90;999.90;;;;;;;7.32;100.00;94129.81;5072665;28;20173;-69
2022/12/21 10:04:44;;;;;;;1999.90;999.90;;;;;;;7.34;100.00;94149.94;5073221;28;20188;-66
2022/12/21 10:07:24;;;;;;;1999.90;999.90;;;;;;;7.40;100.00;94153.72;5072772;28;20179;-62
2022/12/21 10:10:08;;;;;;;1999.90;999.90;;;;;;;7.39;100.00;94163.03;5073020;28;20179;-61
2022/12/21 10:13:12;;;;;;;1999.90;999.90;;;;;;;7.36;100.00;94190.25;5072797;28;20184;-61
2022/12/21 10:16:13;;;;;;;1999.90;999.90;;;;;;;7.39;100.00;94206.47;5046017;28;20625;-61
2022/12/21 10:18:57;;;;;;;1999.90;999.90;;;;;;;7.42;100.00;94210.31;5072511;28;20201;-61
2022/12/21 10:21:44;;;;;;;1999.90;999.90;;;;;;;7.45;100.00;94209.50;5073083;28;20216;-61
2022/12/21 10:24:24;;;;;;;1999.90;999.90;;;;;;;7.39;100.00;94219.31;5072910;28;20180;-64
2022/12/21 10:26:54;;;;;;;1999.90;999.90;;;;;;;7.38;100.00;94234.81;5072501;28;20227;-67
2022/12/21 10:29:26;;;;;;;1999.90;999.90;;;;;;;7.38;100.00;94237.53;5073103;28;20203;-67
2022/12/21 10:31:53;;;;;;;1999.90;999.90;;;;;;;7.37;100.00;94236.00;5056313;28;20177;-67
2022/12/21 10:34:23;;;;;;;1999.90;999.90;;;;;;;7.41;100.00;94247.56;5072837;28;20277;-67
2022/12/21 10:36:54;;;;;;;1999.90;999.90;;;;;;;7.51;100.00;94243.16;5071957;28;20177;-67
2022/12/21 10:39:20;;;;;;;1999.90;999.90;;;;;;;7.57;100.00;94234.13;5071854;28;20301;-61
2022/12/21 10:42:23;;;;;;;1999.90;999.90;;;;;;;7.67;100.00;94221.56;5056074;28;20266;-66
2022/12/21 10:44:50;;;;;;;1999.90;999.90;;;;;;;7.68;100.00;94236.69;5055422;28;20182;-68
2022/12/21 10:47:18;;;;;;;1999.90;999.90;;;;;;;7.75;100.00;94231.91;5071031;28;20619;-68
2022/12/21 10:50:15;;;;;;;1999.90;999.90;;;;;;;7.83;100.00;94229.84;5072255;28;20211;-67
2022/12/21 10:52:40;;;;;;;1999.90;999.90;;;;;;;8.00;100.00;94229.53;5072137;28;20222;-68
2022/12/21 10:55:26;;;;;;;1999.90;999.90;;;;;;;8.11;100.00;94235.56;5071617;28;20276;-68
2022/12/21 10:58:10;;;;;;;1999.90;999.90;;;;;;;8.17;100.00;94247.50;5054518;28;20678;-66
2022/12/21 11:00:40;;;;;;;1999.90;999.90;;;;;;;8.29;100.00;94257.78;5071844;28;20174;-61
2022/12/21 11:03:25;;;;;;;1999.90;999.90;;;;;;;8.33;100.00;94274.03;5054899;28;20277;-68
2022/12/21 11:05:50;;;;;;;1999.90;999.90;;;;;;;8.41;100.00;94287.09;5071502;28;20185;-67
2022/12/21 11:08:24;;;;;;;1999.90;999.90;;;;;;;8.46;100.00;94316.56;5054970;28;20284;-68
2022/12/21 11:10:53;;;;;;;1999.90;999.90;;;;;;;8.41;100.00;94336.03;5071317;28;20174;-68
2022/12/21 11:13:20;;;;;;;1999.90;999.90;;;;;;;8.31;100.00;94369.63;5071614;28;20224;-70
2022/12/21 11:15:52;;;;;;;1999.90;999.90;;;;;;;8.30;100.00;94400.72;5038608;28;20194;-68